createdAt,value
2017-11-29T00:02:16.746Z,87.60
2017-11-29T00:04:45.982Z,87.60
2017-11-29T00:07:15.213Z,87.60
2017-11-29T00:09:44.472Z,87.80
2017-11-29T00:12:13.700Z,87.90
2017-11-29T00:14:42.927Z,87.10
2017-11-29T00:17:12.177Z,87.30
2017-11-29T00:19:41.410Z,87.40
2017-11-29T00:22:10.636Z,87.60
2017-11-29T00:24:39.891Z,88.10
2017-11-29T00:27:09.121Z,88.00
2017-11-29T00:29:39.165Z,88.20
2017-11-29T00:32:08.396Z,88.10
2017-11-29T00:34:37.630Z,87.50
2017-11-29T00:37:06.889Z,88.00
2017-11-29T00:39:36.119Z,88.00
2017-11-29T00:42:05.348Z,87.60
2017-11-29T00:44:34.596Z,87.80
2017-11-29T00:47:03.831Z,87.90
2017-11-29T00:49:33.058Z,87.70
2017-11-29T00:52:02.305Z,87.70
2017-11-29T00:54:31.528Z,86.80
2017-11-29T00:57:00.760Z,87.30
2017-11-29T00:59:30.009Z,87.20
2017-11-29T01:01:59.236Z,87.10
2017-11-29T01:04:28.460Z,87.50
2017-11-29T01:06:58.484Z,87.80
2017-11-29T01:09:28.484Z,87.60
2017-11-29T01:11:57.732Z,87.60
2017-11-29T01:14:27.007Z,88.20
2017-11-29T01:16:56.998Z,87.80
2017-11-29T01:19:26.253Z,87.80
2017-11-29T01:21:55.487Z,88.70
2017-11-29T01:24:24.709Z,88.00
2017-11-29T01:26:54.730Z,87.60
2017-11-29T01:29:24.725Z,87.40
2017-11-29T01:31:53.976Z,87.40
2017-11-29T01:34:23.217Z,87.50
2017-11-29T01:36:52.444Z,87.40
2017-11-29T01:39:22.461Z,87.20
2017-11-29T01:41:51.685Z,87.20
2017-11-29T01:44:20.937Z,87.20
2017-11-29T01:46:50.169Z,87.60
2017-11-29T01:49:20.212Z,87.00
2017-11-29T01:51:49.457Z,86.90
2017-11-29T01:54:18.687Z,87.30
2017-11-29T01:56:48.729Z,87.30
2017-11-29T01:59:17.953Z,87.30
2017-11-29T02:01:47.964Z,88.10
2017-11-29T02:04:17.973Z,87.30
2017-11-29T02:06:47.209Z,87.20
2017-11-29T02:09:17.081Z,87.00
2017-11-29T02:11:46.295Z,86.90
2017-11-29T02:14:16.320Z,87.50
2017-11-29T02:16:46.326Z,87.20
2017-11-29T02:19:15.562Z,87.20
2017-11-29T02:21:44.797Z,87.30
2017-11-29T02:24:14.060Z,87.30
2017-11-29T02:26:43.340Z,87.70
2017-11-29T02:29:13.334Z,88.90
2017-11-29T02:31:42.570Z,88.40
2017-11-29T02:34:11.788Z,88.30
2017-11-29T02:36:41.045Z,87.80
2017-11-29T02:39:10.289Z,88.00
2017-11-29T02:41:57.432Z,87.90
2017-11-29T02:44:27.495Z,87.80
2017-11-29T02:46:57.508Z,87.60
2017-11-29T02:49:26.739Z,87.50
2017-11-29T02:51:55.966Z,87.40
2017-11-29T02:54:25.198Z,87.00
2017-11-29T02:56:54.424Z,86.60
2017-11-29T02:59:23.664Z,86.40
2017-11-29T03:01:52.918Z,86.20
2017-11-29T03:04:22.909Z,86.00
2017-11-29T03:06:52.142Z,86.00
2017-11-29T03:09:21.394Z,85.70
2017-11-29T03:11:50.639Z,85.60
2017-11-29T03:14:20.621Z,85.40
2017-11-29T03:16:49.873Z,85.30
2017-11-29T03:19:19.135Z,85.10
2017-11-29T03:21:49.134Z,85.10
2017-11-29T03:24:18.368Z,85.10
2017-11-29T03:26:48.356Z,85.70
2017-11-29T03:29:17.614Z,85.70
2017-11-29T03:31:46.936Z,85.10
2017-11-29T03:34:16.221Z,85.70
2017-11-29T03:36:46.209Z,84.90
2017-11-29T03:39:16.314Z,84.90
2017-11-29T03:41:46.309Z,84.80
2017-11-29T03:44:15.584Z,85.00
2017-11-29T03:46:44.785Z,84.70
2017-11-29T03:49:14.019Z,84.60
2017-11-29T03:51:43.256Z,85.00
2017-11-29T03:54:12.496Z,83.80
2017-11-29T03:56:41.734Z,83.70
2017-11-29T03:59:11.732Z,83.20
2017-11-29T04:01:40.970Z,83.20
2017-11-29T04:04:10.976Z,82.40
2017-11-29T04:06:40.976Z,82.90
2017-11-29T04:09:11.104Z,82.80
2017-11-29T04:11:41.121Z,83.20
2017-11-29T04:14:10.355Z,82.50
2017-11-29T04:16:39.588Z,83.30
2017-11-29T04:19:08.824Z,82.20
2017-11-29T04:21:38.070Z,82.00
2017-11-29T04:24:07.397Z,82.10
2017-11-29T04:26:36.720Z,82.40
2017-11-29T04:29:05.968Z,82.70
2017-11-29T04:31:35.204Z,82.60
2017-11-29T04:34:04.438Z,82.80
2017-11-29T04:36:33.686Z,82.70
2017-11-29T04:39:02.925Z,82.80
2017-11-29T04:41:32.941Z,83.10
2017-11-29T04:44:02.949Z,83.40
2017-11-29T04:46:32.181Z,83.40
2017-11-29T04:49:01.420Z,83.30
2017-11-29T04:51:30.664Z,84.20
2017-11-29T04:54:00.679Z,85.30
2017-11-29T04:56:29.913Z,84.40
2017-11-29T04:58:59.174Z,84.80
2017-11-29T05:01:29.176Z,84.20
2017-11-29T05:03:58.420Z,84.10
2017-11-29T05:06:27.664Z,83.70
2017-11-29T05:08:56.912Z,83.70
2017-11-29T05:11:26.162Z,83.50
2017-11-29T05:13:55.413Z,83.60
2017-11-29T05:16:25.545Z,84.10
2017-11-29T05:18:54.831Z,83.90
2017-11-29T05:21:24.042Z,84.60
2017-11-29T05:23:54.136Z,84.70
2017-11-29T05:26:23.362Z,85.20
2017-11-29T05:28:52.584Z,84.90
2017-11-29T05:31:22.350Z,85.00
2017-11-29T05:33:52.362Z,83.90
2017-11-29T05:36:22.369Z,83.90
2017-11-29T05:38:52.540Z,83.90
2017-11-29T05:41:22.842Z,84.90
2017-11-29T05:43:52.069Z,84.00
2017-11-29T05:46:21.313Z,83.50
2017-11-29T05:48:50.546Z,84.10
2017-11-29T05:51:19.776Z,83.70
2017-11-29T05:53:49.022Z,83.10
2017-11-29T05:56:19.041Z,83.00
2017-11-29T05:58:49.042Z,83.10
2017-11-29T06:01:18.286Z,82.90
2017-11-29T06:03:47.525Z,82.50
2017-11-29T06:06:16.762Z,82.50
2017-11-29T06:08:46.801Z,82.80
2017-11-29T06:11:16.038Z,82.80
2017-11-29T06:13:45.282Z,82.40
2017-11-29T06:16:15.304Z,83.20
2017-11-29T06:18:45.309Z,83.60
2017-11-29T06:21:15.333Z,83.20
2017-11-29T06:23:45.349Z,83.40
2017-11-29T06:26:15.386Z,83.10
2017-11-29T06:29:09.980Z,83.10
2017-11-29T06:31:40.081Z,83.40
2017-11-29T06:34:10.101Z,82.80
2017-11-29T06:36:40.129Z,82.80
2017-11-29T06:39:10.120Z,83.10
2017-11-29T06:41:39.386Z,83.10
2017-11-29T06:44:08.645Z,82.90
2017-11-29T06:46:38.661Z,82.70
2017-11-29T06:49:07.914Z,82.70
2017-11-29T06:51:37.140Z,82.70
2017-11-29T06:54:06.374Z,82.40
2017-11-29T06:56:35.620Z,82.80
2017-11-29T06:59:04.867Z,82.20
2017-11-29T07:01:34.111Z,82.40
2017-11-29T07:04:03.360Z,82.90
2017-11-29T07:06:33.356Z,84.00
2017-11-29T07:09:02.663Z,83.30
2017-11-29T07:11:31.908Z,83.10
2017-11-29T07:14:01.130Z,83.40
2017-11-29T07:16:30.708Z,83.30
2017-11-29T07:18:59.969Z,83.00
2017-11-29T07:21:29.196Z,83.10
2017-11-29T07:24:00.856Z,82.80
2017-11-29T07:26:30.821Z,83.60
2017-11-29T07:29:00.172Z,83.30
2017-11-29T07:31:29.418Z,82.90
2017-11-29T07:33:58.714Z,82.70
2017-11-29T07:36:27.932Z,83.10
2017-11-29T07:38:57.160Z,83.10
2017-11-29T07:41:26.494Z,82.60
2017-11-29T07:43:55.738Z,81.70
2017-11-29T07:46:25.010Z,81.70
2017-11-29T07:48:54.245Z,81.20
2017-11-29T07:51:24.290Z,81.10
2017-11-29T07:53:53.529Z,81.00
2017-11-29T07:56:22.780Z,81.20
2017-11-29T07:58:52.018Z,81.00
2017-11-29T08:01:21.242Z,81.90
2017-11-29T08:03:50.490Z,80.80
2017-11-29T08:06:19.734Z,81.70
2017-11-29T08:08:48.971Z,80.40
2017-11-29T08:11:18.978Z,81.70
2017-11-29T08:13:48.997Z,81.00
2017-11-29T08:16:18.237Z,81.00
2017-11-29T08:18:47.472Z,80.90
2017-11-29T08:21:16.709Z,81.20
2017-11-29T08:23:46.721Z,81.20
2017-11-29T08:26:17.292Z,80.70
2017-11-29T08:28:47.165Z,80.70
2017-11-29T08:31:16.375Z,80.70
2017-11-29T08:33:46.377Z,81.50
2017-11-29T08:36:16.391Z,81.00
2017-11-29T08:38:47.261Z,80.40
2017-11-29T08:41:17.304Z,81.00
2017-11-29T08:43:46.573Z,81.00
2017-11-29T08:46:16.434Z,81.10
2017-11-29T08:48:45.700Z,81.20
2017-11-29T08:51:14.932Z,80.20
2017-11-29T08:53:44.241Z,79.40
2017-11-29T08:56:13.470Z,79.50
2017-11-29T08:58:43.560Z,79.70
2017-11-29T09:01:12.799Z,79.60
2017-11-29T09:03:42.027Z,80.10
2017-11-29T09:06:11.268Z,79.80
2017-11-29T09:08:40.504Z,79.70
2017-11-29T09:11:09.735Z,79.10
2017-11-29T09:13:38.981Z,79.40
2017-11-29T09:16:08.999Z,80.10
2017-11-29T09:18:39.026Z,81.10
2017-11-29T09:21:09.023Z,78.20
2017-11-29T09:23:38.274Z,78.20
2017-11-29T09:26:07.537Z,78.80
2017-11-29T09:28:37.539Z,80.00
2017-11-29T09:31:06.773Z,80.00
2017-11-29T09:33:36.010Z,79.10
2017-11-29T09:36:05.250Z,78.20
2017-11-29T09:38:34.475Z,78.30
2017-11-29T09:41:03.713Z,77.80
2017-11-29T09:43:32.941Z,78.40
2017-11-29T09:46:02.185Z,78.50
2017-11-29T09:48:31.417Z,78.30
2017-11-29T09:51:00.693Z,78.20
2017-11-29T09:53:29.921Z,77.00
2017-11-29T09:55:59.153Z,77.90
2017-11-29T09:58:29.273Z,76.60
2017-11-29T10:00:59.273Z,77.60
2017-11-29T10:03:28.529Z,77.60
2017-11-29T10:05:57.795Z,77.70
2017-11-29T10:08:27.789Z,77.90
2017-11-29T10:10:57.824Z,78.10
2017-11-29T10:13:27.857Z,76.90
2017-11-29T10:15:57.115Z,76.90
2017-11-29T10:18:26.373Z,76.70
2017-11-29T10:20:55.596Z,77.10
2017-11-29T10:23:24.828Z,76.60
2017-11-29T10:25:54.089Z,78.40
2017-11-29T10:28:23.356Z,78.40
2017-11-29T10:30:52.588Z,78.20
2017-11-29T10:33:21.854Z,77.80
2017-11-29T10:35:51.098Z,78.00
2017-11-29T10:38:20.349Z,78.10
2017-11-29T10:40:49.576Z,78.40
2017-11-29T10:43:18.843Z,78.40
2017-11-29T10:45:48.897Z,78.60
2017-11-29T10:48:18.128Z,78.50
2017-11-29T10:50:47.388Z,77.90
2017-11-29T10:53:17.560Z,78.80
2017-11-29T10:55:47.669Z,79.40
2017-11-29T10:58:17.005Z,79.40
2017-11-29T11:00:47.008Z,79.90
2017-11-29T11:03:17.025Z,79.90
2017-11-29T11:05:47.048Z,79.40
2017-11-29T11:08:17.043Z,79.00
2017-11-29T11:10:46.302Z,79.00
2017-11-29T11:13:15.555Z,79.60
2017-11-29T11:15:44.791Z,79.20
2017-11-29T11:18:14.062Z,78.80
2017-11-29T11:20:43.304Z,78.60
2017-11-29T11:23:12.533Z,79.40
2017-11-29T11:25:41.790Z,78.00
2017-11-29T11:28:11.032Z,77.90
2017-11-29T11:30:40.270Z,77.70
2017-11-29T11:33:10.526Z,76.60
2017-11-29T11:35:39.899Z,76.50
2017-11-29T11:38:10.016Z,77.20
2017-11-29T11:40:40.297Z,76.80
2017-11-29T11:43:09.582Z,76.80
2017-11-29T11:45:39.691Z,77.30
2017-11-29T11:48:08.967Z,77.50
2017-11-29T11:50:38.334Z,76.10
2017-11-29T11:53:08.237Z,76.70
2017-11-29T11:55:37.713Z,76.00
2017-11-29T11:58:07.054Z,75.50
2017-11-29T12:00:36.297Z,74.70
2017-11-29T12:03:06.305Z,75.50
2017-11-29T12:05:36.326Z,76.30
2017-11-29T12:08:07.072Z,76.10
2017-11-29T12:10:37.063Z,76.90
2017-11-29T12:13:07.102Z,78.00
2017-11-29T12:15:36.353Z,77.90
2017-11-29T12:18:05.598Z,77.50
2017-11-29T12:20:35.612Z,77.70
2017-11-29T12:23:04.869Z,77.70
2017-11-29T12:25:34.108Z,77.10
2017-11-29T12:28:04.112Z,76.80
2017-11-29T12:30:33.340Z,76.70
2017-11-29T12:33:02.601Z,77.10
2017-11-29T12:35:31.862Z,77.50
2017-11-29T12:38:01.114Z,77.40
2017-11-29T12:40:31.176Z,76.10
2017-11-29T12:43:00.421Z,76.70
2017-11-29T12:45:29.645Z,77.90
2017-11-29T12:48:17.280Z,77.10
2017-11-29T12:51:05.050Z,78.20
2017-11-29T12:53:34.320Z,77.50
2017-11-29T12:56:04.593Z,77.00
2017-11-29T12:58:34.920Z,77.70
2017-11-29T13:01:04.833Z,77.60
2017-11-29T13:03:34.269Z,78.20
2017-11-29T13:06:04.293Z,78.00
2017-11-29T13:08:34.341Z,78.30
2017-11-29T13:11:03.564Z,78.30
2017-11-29T13:13:32.986Z,78.70
2017-11-29T13:16:02.223Z,78.20
2017-11-29T13:18:31.527Z,78.80
2017-11-29T13:21:00.781Z,78.40
2017-11-29T13:23:30.033Z,78.70
2017-11-29T13:25:59.264Z,78.70
2017-11-29T13:28:28.530Z,79.60
2017-11-29T13:30:57.769Z,78.10
2017-11-29T13:33:27.013Z,79.40
2017-11-29T13:35:58.926Z,79.80
2017-11-29T13:38:28.167Z,79.80
2017-11-29T13:40:58.224Z,81.20
2017-11-29T13:43:27.437Z,81.20
2017-11-29T13:45:56.670Z,81.10
2017-11-29T13:48:26.017Z,81.30
2017-11-29T13:50:55.247Z,81.10
2017-11-29T13:53:24.477Z,82.10
2017-11-29T13:55:53.724Z,81.80
2017-11-29T13:58:22.969Z,82.70
2017-11-29T14:00:52.253Z,83.10
2017-11-29T14:03:21.510Z,82.70
2017-11-29T14:05:50.781Z,83.10
2017-11-29T14:08:20.022Z,84.00
2017-11-29T14:10:49.248Z,83.10
2017-11-29T14:13:18.520Z,82.80
2017-11-29T14:15:47.770Z,81.40
2017-11-29T14:18:17.025Z,82.10
2017-11-29T14:20:46.280Z,81.70
2017-11-29T14:23:15.521Z,81.30
2017-11-29T14:25:44.749Z,80.60
2017-11-29T14:28:14.002Z,80.60
2017-11-29T14:30:43.252Z,80.00
2017-11-29T14:33:12.494Z,79.10
2017-11-29T14:35:42.545Z,77.40
2017-11-29T14:38:11.773Z,77.50
2017-11-29T14:40:41.009Z,76.40
2017-11-29T14:43:11.021Z,76.50
2017-11-29T14:45:41.071Z,75.70
2017-11-29T14:48:10.311Z,75.70
2017-11-29T14:50:39.566Z,75.40
2017-11-29T14:53:08.797Z,74.80
2017-11-29T14:55:38.055Z,74.50
2017-11-29T14:58:07.289Z,74.40
2017-11-29T15:00:36.521Z,74.20
2017-11-29T15:03:05.787Z,75.00
2017-11-29T15:05:35.021Z,74.30
2017-11-29T15:08:04.264Z,74.30
2017-11-29T15:10:33.503Z,74.40
2017-11-29T15:13:02.743Z,74.40
2017-11-29T15:15:32.775Z,73.40
2017-11-29T15:18:02.018Z,73.50
2017-11-29T15:20:31.250Z,73.90
2017-11-29T15:23:01.268Z,73.80
2017-11-29T15:25:31.265Z,73.10
2017-11-29T15:28:00.521Z,73.10
2017-11-29T15:30:29.761Z,73.30
2017-11-29T15:32:59.032Z,73.10
2017-11-29T15:35:28.273Z,73.00
2017-11-29T15:37:57.507Z,72.90
2017-11-29T15:40:26.761Z,72.40
2017-11-29T15:42:56.034Z,71.90
2017-11-29T15:45:25.282Z,72.70
2017-11-29T15:47:54.516Z,73.70
2017-11-29T15:50:23.780Z,74.10
2017-11-29T15:52:53.029Z,73.20
2017-11-29T15:55:23.065Z,73.20
2017-11-29T15:57:52.358Z,73.20
2017-11-29T16:00:21.593Z,73.40
2017-11-29T16:02:50.873Z,73.10
2017-11-29T16:05:20.093Z,73.90
2017-11-29T16:07:49.331Z,74.40
2017-11-29T16:10:18.606Z,74.90
2017-11-29T16:12:47.870Z,74.20
2017-11-29T16:15:17.101Z,73.70
2017-11-29T16:17:47.131Z,74.10
2017-11-29T16:20:17.125Z,73.00
2017-11-29T16:22:46.381Z,72.90
2017-11-29T16:25:15.614Z,73.10
2017-11-29T16:27:44.853Z,74.30
2017-11-29T16:30:14.101Z,74.20
2017-11-29T16:32:43.361Z,75.10
2017-11-29T16:35:12.596Z,75.30
2017-11-29T16:37:41.837Z,73.60
2017-11-29T16:40:11.861Z,73.30
2017-11-29T16:42:41.866Z,74.00
2017-11-29T16:45:11.894Z,74.00
2017-11-29T16:47:41.893Z,74.50
2017-11-29T16:50:11.912Z,75.30
2017-11-29T16:52:41.161Z,74.80
2017-11-29T16:55:10.397Z,74.60
2017-11-29T16:57:39.653Z,73.90
2017-11-29T17:00:09.105Z,73.50
2017-11-29T17:02:38.341Z,73.90
2017-11-29T17:05:07.590Z,73.30
2017-11-29T17:07:36.901Z,73.90
2017-11-29T17:10:06.151Z,73.90
2017-11-29T17:12:35.404Z,73.50
2017-11-29T17:15:04.672Z,73.80
2017-11-29T17:17:33.950Z,73.90
2017-11-29T17:20:03.180Z,73.40
2017-11-29T17:22:32.437Z,73.10
2017-11-29T17:25:02.500Z,73.60
2017-11-29T17:27:31.757Z,73.50
2017-11-29T17:30:07.790Z,73.00
2017-11-29T17:32:37.035Z,72.50
2017-11-29T17:35:06.277Z,73.00
2017-11-29T17:37:35.537Z,73.20
2017-11-29T17:40:04.771Z,73.70
2017-11-29T17:42:39.324Z,74.60
2017-11-29T17:45:13.594Z,75.00
2017-11-29T17:47:50.821Z,75.00
2017-11-29T17:50:25.918Z,74.90
2017-11-29T17:52:58.312Z,75.10
2017-11-29T17:55:34.291Z,75.00
2017-11-29T17:58:08.631Z,74.40
2017-11-29T18:01:05.370Z,75.00
2017-11-29T18:03:37.837Z,74.80
2017-11-29T18:06:07.888Z,74.80
2017-11-29T18:08:37.128Z,74.70
2017-11-29T18:11:06.361Z,75.10
2017-11-29T18:13:37.217Z,74.10
2017-11-29T18:16:06.452Z,74.10
2017-11-29T18:18:35.701Z,74.40
2017-11-29T18:21:04.936Z,74.80
2017-11-29T18:23:34.562Z,74.60
2017-11-29T18:26:03.827Z,74.60
2017-11-29T18:28:33.074Z,74.90
2017-11-29T18:31:02.342Z,75.20
2017-11-29T18:33:31.580Z,74.80
2017-11-29T18:36:00.826Z,75.80
2017-11-29T18:38:30.085Z,75.20
2017-11-29T18:40:59.325Z,74.90
2017-11-29T18:43:28.557Z,74.50
2017-11-29T18:45:57.820Z,75.10
2017-11-29T18:48:27.060Z,75.40
2017-11-29T18:50:56.410Z,76.50
2017-11-29T18:53:25.674Z,76.00
2017-11-29T18:55:54.904Z,76.00
2017-11-29T18:58:24.948Z,77.10
2017-11-29T19:00:54.205Z,77.90
2017-11-29T19:03:23.459Z,77.50
2017-11-29T19:05:52.716Z,77.70
2017-11-29T19:08:22.717Z,78.20
2017-11-29T19:10:51.980Z,78.10
2017-11-29T19:13:21.241Z,77.90
2017-11-29T19:15:51.319Z,77.80
2017-11-29T19:18:20.586Z,77.80
2017-11-29T19:20:50.564Z,77.80
2017-11-29T19:23:20.592Z,78.30
2017-11-29T19:25:50.617Z,78.00
2017-11-29T19:28:19.864Z,78.00
2017-11-29T19:30:49.137Z,78.20
2017-11-29T19:33:18.392Z,78.00
2017-11-29T19:35:47.633Z,78.00
2017-11-29T19:38:16.885Z,77.70
2017-11-29T19:40:46.132Z,78.20
2017-11-29T19:43:15.372Z,78.80
2017-11-29T19:45:44.633Z,78.90
2017-11-29T19:48:13.915Z,79.70
2017-11-29T19:50:43.949Z,80.20
2017-11-29T19:53:13.213Z,80.20
2017-11-29T19:55:43.249Z,80.30
2017-11-29T19:58:13.254Z,81.00
2017-11-29T20:00:43.269Z,81.50
2017-11-29T20:03:13.298Z,81.40
2017-11-29T20:05:43.321Z,82.10
2017-11-29T20:08:13.339Z,82.30
2017-11-29T20:10:44.741Z,82.20
2017-11-29T20:13:15.134Z,82.70
2017-11-29T20:15:44.582Z,82.70
2017-11-29T20:18:13.817Z,82.90
2017-11-29T20:20:43.082Z,82.60
2017-11-29T20:23:12.324Z,82.40
2017-11-29T20:25:41.588Z,83.00
2017-11-29T20:28:10.857Z,82.90
2017-11-29T20:30:40.090Z,82.20
2017-11-29T20:33:09.350Z,82.90
2017-11-29T20:35:38.609Z,83.20
2017-11-29T20:38:08.632Z,83.00
2017-11-29T20:40:38.653Z,82.60
2017-11-29T20:43:08.679Z,81.50
2017-11-29T20:45:38.696Z,81.50
2017-11-29T20:48:07.950Z,81.50
2017-11-29T20:50:37.249Z,80.90
2017-11-29T20:53:06.502Z,81.00
2017-11-29T20:55:35.742Z,80.50
2017-11-29T20:58:05.002Z,80.70
2017-11-29T21:00:34.249Z,80.70
2017-11-29T21:03:03.513Z,80.30
2017-11-29T21:05:32.770Z,80.70
2017-11-29T21:08:02.010Z,81.20
2017-11-29T21:10:32.076Z,81.70
2017-11-29T21:13:01.332Z,81.70
2017-11-29T21:15:30.584Z,81.40
2017-11-29T21:17:59.854Z,81.60
2017-11-29T21:20:29.101Z,81.80
2017-11-29T21:22:59.130Z,81.30
2017-11-29T21:25:28.384Z,82.00
2017-11-29T21:27:57.625Z,80.50
2017-11-29T21:30:27.645Z,80.70
2017-11-29T21:32:56.897Z,80.70
2017-11-29T21:35:26.150Z,80.90
2017-11-29T21:37:55.417Z,81.70
2017-11-29T21:40:24.678Z,81.20
2017-11-29T21:42:53.919Z,81.60
2017-11-29T21:45:25.077Z,82.10
2017-11-29T21:47:55.129Z,82.20
2017-11-29T21:50:25.125Z,82.00
2017-11-29T21:52:54.395Z,82.00
2017-11-29T21:55:23.632Z,81.70
2017-11-29T21:57:52.893Z,81.60
2017-11-29T22:00:22.939Z,81.60
2017-11-29T22:02:52.957Z,82.00
2017-11-29T22:05:22.237Z,82.00
2017-11-29T22:07:51.473Z,81.40
2017-11-29T22:10:20.721Z,81.10
2017-11-29T22:12:49.981Z,81.20
2017-11-29T22:15:19.238Z,81.10
2017-11-29T22:17:48.502Z,80.70
2017-11-29T22:20:17.776Z,80.20
2017-11-29T22:22:47.031Z,80.30
2017-11-29T22:25:17.374Z,80.40
2017-11-29T22:27:47.382Z,80.80
2017-11-29T22:30:16.666Z,80.80
2017-11-29T22:32:45.918Z,81.00
2017-11-29T22:35:15.175Z,81.00
2017-11-29T22:37:44.422Z,81.20
2017-11-29T22:40:13.685Z,80.80
2017-11-29T22:42:43.713Z,81.80
2017-11-29T22:45:13.728Z,81.40
2017-11-29T22:47:43.765Z,81.80
2017-11-29T22:50:13.008Z,81.60
2017-11-29T22:52:42.265Z,81.60
2017-11-29T22:55:11.529Z,81.20
2017-11-29T22:57:40.775Z,80.60
2017-11-29T23:00:10.018Z,80.40
2017-11-29T23:02:39.273Z,80.60
2017-11-29T23:05:09.286Z,81.50
2017-11-29T23:07:39.310Z,81.40
2017-11-29T23:10:08.557Z,81.40
2017-11-29T23:12:37.801Z,81.00
2017-11-29T23:15:07.821Z,81.10
2017-11-29T23:17:38.919Z,81.00
2017-11-29T23:20:08.159Z,81.10
2017-11-29T23:22:38.169Z,81.70
2017-11-29T23:25:08.190Z,81.50
2017-11-29T23:27:38.206Z,81.40
2017-11-29T23:30:08.280Z,81.50
2017-11-29T23:32:37.526Z,81.50
2017-11-29T23:35:06.754Z,81.50
2017-11-29T23:37:36.029Z,81.00
2017-11-29T23:40:06.048Z,80.10
2017-11-29T23:42:36.090Z,80.10
2017-11-29T23:45:06.087Z,80.50
2017-11-29T23:47:36.119Z,80.90
2017-11-29T23:50:05.385Z,80.90
2017-11-29T23:52:34.657Z,81.70
2017-11-29T23:55:03.940Z,82.20
2017-11-29T23:57:33.973Z,83.50
